ンジャメナ の空港の天気 - METARとTAF

ンジャメナ国際空港 ( FTTJ / NDJ ) - チャド ンジャメナ
飛行場実況気象(Metar)
観測時間05/28 02:00 WAT (05/28 01:00 UTC)
風向・風速北 2m/s
視程8000m
天気現象
なし
気温27℃
湿度54%
気圧1008hPa
METARFTTJ 280100Z 36003KT 8000 NSC 27/17 Q1008 NOSIG
過去の天気等 Google飛行場航空写真 Wunderground天気予報

過去48時間のMETAR

飛行場予報(TAF)
発表時間: 5/28 00:00 WAT (5/27 23:00 UTC)
予報対象時間: 28日1時 WAT ~ 29日7時 WAT
風向・風速不定 2m/s
視程10km以上
なし
28日7時 WAT ~ 28日9時 WAT に徐々に
風向・風速西南西 5m/s
TAF FTTJ 272300Z 2800/2906 VRB04KT CAVOK
BECMG 2806/2808 24010KT